createdAt,value
2022-08-09T00:04:44.820Z,88.73
2022-08-09T00:10:07.718Z,88.28
2022-08-09T00:15:26.385Z,89.56
2022-08-09T00:20:49.853Z,92.00
2022-08-09T00:25:54.399Z,93.07
2022-08-09T00:30:59.499Z,94.29
2022-08-09T00:36:05.183Z,92.45
2022-08-09T00:41:08.991Z,91.75
2022-08-09T00:46:28.293Z,92.08
2022-08-09T00:51:42.686Z,92.49
2022-08-09T00:56:58.387Z,92.67
2022-08-09T01:02:03.606Z,93.45
2022-08-09T01:07:17.889Z,94.20
2022-08-09T01:12:31.036Z,95.58
2022-08-09T01:17:40.517Z,95.15
2022-08-09T01:22:58.629Z,95.74
2022-08-09T01:28:08.542Z,96.83
2022-08-09T01:33:14.329Z,96.56
2022-08-09T01:38:20.936Z,97.81
2022-08-09T01:43:30.363Z,97.63
2022-08-09T01:48:36.822Z,97.82
2022-08-09T01:53:43.704Z,96.75
2022-08-09T01:58:56.646Z,97.20
2022-08-09T02:04:02.915Z,98.62
2022-08-09T02:09:07.711Z,98.78
2022-08-09T02:14:25.447Z,99.25
2022-08-09T02:19:38.879Z,99.35
2022-08-09T02:24:52.221Z,100.00
2022-08-09T02:30:01.724Z,99.46
2022-08-09T02:36:00.991Z,100.00
2022-08-09T02:41:10.703Z,100.00
2022-08-09T02:46:18.357Z,100.00
2022-08-09T02:51:26.499Z,100.00
2022-08-09T02:56:32.890Z,100.00
2022-08-09T03:01:58.694Z,100.00
2022-08-09T03:07:13.961Z,100.00
2022-08-09T03:12:19.940Z,100.00
2022-08-09T03:17:26.540Z,100.00
2022-08-09T03:22:32.405Z,100.00
2022-08-09T03:28:26.184Z,100.00
2022-08-09T03:33:12.741Z,100.00
2022-08-09T03:38:29.209Z,100.00
2022-08-09T03:43:34.014Z,100.00
2022-08-09T03:48:51.174Z,100.00
2022-08-09T03:53:55.915Z,100.00
2022-08-09T03:59:03.803Z,100.00
2022-08-09T04:04:14.851Z,100.00
2022-08-09T04:09:44.445Z,100.00
2022-08-09T04:15:01.129Z,100.00
2022-08-09T04:20:09.551Z,100.00
2022-08-09T04:25:14.687Z,100.00
2022-08-09T04:30:20.829Z,100.00
2022-08-09T04:35:29.435Z,100.00
2022-08-09T04:40:56.042Z,100.00
2022-08-09T04:46:01.270Z,100.00
2022-08-09T04:51:06.326Z,100.00
2022-08-09T04:56:09.950Z,100.00
2022-08-09T05:01:16.231Z,100.00
2022-08-09T05:06:27.915Z,100.00
2022-08-09T05:11:35.524Z,100.00
2022-08-09T05:16:58.282Z,100.00
2022-08-09T05:22:04.527Z,100.00
2022-08-09T05:27:08.146Z,100.00
2022-08-09T05:32:17.305Z,99.15
2022-08-09T05:37:22.202Z,99.20
2022-08-09T05:42:28.624Z,97.17
2022-08-09T05:47:33.238Z,95.17
2022-08-09T05:52:38.876Z,93.63
2022-08-09T05:57:51.261Z,92.90
2022-08-09T06:03:01.396Z,90.81
2022-08-09T06:08:08.079Z,86.30
2022-08-09T06:13:18.980Z,76.53
2022-08-09T06:18:25.626Z,71.32
2022-08-09T06:23:57.962Z,64.27
2022-08-09T06:29:00.260Z,57.42
2022-08-09T06:34:05.707Z,56.30
2022-08-09T06:39:13.630Z,54.30
2022-08-09T06:44:18.518Z,51.27
2022-08-09T06:49:35.035Z,47.78
2022-08-09T06:54:50.677Z,45.08
2022-08-09T07:00:50.918Z,43.11
2022-08-09T07:05:18.665Z,40.96
2022-08-09T07:10:31.330Z,40.90
2022-08-09T07:16:38.433Z,41.95
2022-08-09T07:21:00.198Z,39.44
2022-08-09T07:26:05.521Z,40.96
2022-08-09T07:31:09.362Z,40.19
2022-08-09T07:36:14.911Z,41.81
2022-08-09T07:41:20.202Z,41.50
2022-08-09T07:46:27.745Z,40.77
2022-08-09T07:52:04.276Z,39.66
2022-08-09T07:56:58.582Z,40.72
2022-08-09T08:02:02.672Z,41.10
2022-08-09T08:07:15.105Z,40.08
2022-08-09T08:12:32.163Z,39.95
2022-08-09T08:17:53.436Z,39.38
2022-08-09T08:23:01.675Z,39.50
2022-08-09T08:28:11.507Z,39.79
2022-08-09T08:33:22.830Z,39.69
2022-08-09T08:38:28.291Z,39.87
2022-08-09T08:43:33.834Z,39.18
2022-08-09T08:48:43.007Z,39.28
2022-08-09T08:54:03.365Z,38.96
2022-08-09T08:59:19.778Z,36.83
2022-08-09T09:04:27.717Z,35.44
2022-08-09T09:10:01.740Z,36.46
2022-08-09T09:15:00.947Z,36.60
2022-08-09T09:20:08.762Z,35.53
2022-08-09T09:26:02.524Z,35.35
2022-08-09T09:31:00.656Z,33.58
2022-08-09T09:36:20.677Z,34.48
2022-08-09T09:41:49.371Z,34.67
2022-08-09T09:46:58.992Z,33.91
2022-08-09T09:52:04.964Z,33.25
2022-08-09T09:58:02.568Z,34.48
2022-08-09T10:02:47.687Z,33.68
2022-08-09T10:08:26.024Z,33.79
2022-08-09T10:13:45.307Z,34.39
2022-08-09T10:18:55.263Z,33.39
2022-08-09T10:24:03.856Z,31.89
2022-08-09T10:29:31.382Z,34.32
2022-08-09T10:34:35.811Z,34.04
2022-08-09T10:39:49.245Z,34.04
2022-08-09T10:44:59.415Z,32.57
2022-08-09T10:50:14.806Z,31.05
2022-08-09T10:55:24.013Z,30.34
2022-08-09T11:00:41.771Z,30.94
2022-08-09T11:06:22.812Z,31.54
2022-08-09T11:11:27.290Z,31.49
2022-08-09T11:16:41.014Z,31.75
2022-08-09T11:22:10.837Z,31.29
2022-08-09T11:28:02.711Z,31.72
2022-08-09T11:33:04.580Z,33.35
2022-08-09T11:38:19.342Z,31.62
2022-08-09T11:43:44.207Z,30.69
2022-08-09T11:48:50.261Z,30.67
2022-08-09T11:54:21.476Z,31.24
2022-08-09T11:59:33.726Z,30.93
2022-08-09T12:04:38.948Z,29.87
2022-08-09T12:09:50.706Z,30.00
2022-08-09T12:15:07.912Z,31.36
2022-08-09T12:20:16.763Z,32.08
2022-08-09T12:25:36.419Z,31.45
2022-08-09T12:30:43.297Z,30.56
2022-08-09T12:35:50.537Z,30.65
2022-08-09T12:40:56.554Z,31.02
2022-08-09T12:46:01.315Z,30.91
2022-08-09T12:51:06.031Z,29.29
2022-08-09T12:56:39.619Z,29.74
2022-08-09T13:01:47.019Z,30.76
2022-08-09T13:06:54.126Z,30.93
2022-08-09T13:12:05.590Z,30.45
2022-08-09T13:17:44.424Z,30.57
2022-08-09T13:23:01.176Z,30.07
2022-08-09T13:28:24.495Z,29.91
2022-08-09T13:33:52.234Z,30.22
2022-08-09T13:39:02.204Z,31.69
2022-08-09T13:44:16.655Z,30.26
2022-08-09T13:49:21.489Z,30.46
2022-08-09T13:54:42.902Z,29.70
2022-08-09T14:00:04.519Z,29.11
2022-08-09T14:05:57.355Z,29.56
2022-08-09T14:10:50.551Z,28.97
2022-08-09T14:16:09.130Z,29.62
2022-08-09T14:21:18.423Z,30.55
2022-08-09T14:26:23.565Z,30.53
2022-08-09T14:31:50.045Z,29.57
2022-08-09T14:36:54.803Z,28.83
2022-08-09T14:41:58.679Z,29.54
2022-08-09T14:47:27.423Z,30.92
2022-08-09T14:52:28.306Z,31.72
2022-08-09T14:57:43.377Z,31.13
2022-08-09T15:02:52.109Z,31.65
2022-08-09T15:07:58.361Z,30.98
2022-08-09T15:13:04.088Z,31.36
2022-08-09T15:18:14.248Z,31.79
2022-08-09T15:24:01.831Z,32.57
2022-08-09T15:28:42.682Z,32.81
2022-08-09T15:34:15.485Z,32.45
2022-08-09T15:39:25.083Z,31.38
2022-08-09T15:44:38.889Z,31.41
2022-08-09T15:50:00.546Z,31.93
2022-08-09T15:55:10.672Z,32.15
2022-08-09T16:00:24.381Z,32.45
2022-08-09T16:05:47.183Z,31.56
2022-08-09T16:10:56.927Z,32.42
2022-08-09T16:16:11.518Z,32.36
2022-08-09T16:21:25.711Z,32.90
2022-08-09T16:26:35.683Z,32.14
2022-08-09T16:32:19.669Z,32.20
2022-08-09T16:37:07.602Z,33.40
2022-08-09T16:42:11.576Z,33.46
2022-08-09T16:48:41.702Z,34.09
2022-08-09T16:52:43.811Z,33.92
2022-08-09T16:58:08.061Z,33.61
2022-08-09T17:03:21.631Z,34.11
2022-08-09T17:08:45.795Z,35.34
2022-08-09T17:14:01.754Z,35.24
2022-08-09T17:19:06.293Z,35.07
2022-08-09T17:24:28.531Z,35.39
2022-08-09T17:29:38.062Z,35.19
2022-08-09T17:35:07.391Z,35.53
2022-08-09T17:40:17.924Z,35.71
2022-08-09T17:45:27.580Z,36.05
2022-08-09T17:50:55.976Z,37.26
2022-08-09T17:56:07.619Z,38.03
2022-08-09T18:01:13.163Z,37.88
2022-08-09T18:06:32.453Z,37.49
2022-08-09T18:12:05.422Z,37.67
2022-08-09T18:17:03.690Z,38.87
2022-08-09T18:22:13.078Z,39.69
2022-08-09T18:27:59.767Z,40.77
2022-08-09T18:32:45.391Z,39.91
2022-08-09T18:37:57.898Z,39.57
2022-08-09T18:43:03.063Z,41.10
2022-08-09T18:48:08.493Z,42.12
2022-08-09T18:53:13.552Z,42.92
2022-08-09T18:58:32.045Z,44.97
2022-08-09T19:03:54.681Z,46.96
2022-08-09T19:09:02.728Z,46.82
2022-08-09T19:14:11.822Z,48.13
2022-08-09T19:19:26.180Z,49.11
2022-08-09T19:24:38.591Z,51.42
2022-08-09T19:30:21.338Z,51.92
2022-08-09T19:35:26.226Z,53.42
2022-08-09T19:40:34.518Z,54.24
2022-08-09T19:45:41.176Z,54.53
2022-08-09T19:50:50.877Z,59.56
2022-08-09T19:56:03.054Z,61.94
2022-08-09T20:01:11.932Z,62.55
2022-08-09T20:06:22.357Z,59.95
2022-08-09T20:11:43.453Z,60.77
2022-08-09T20:16:55.069Z,61.37
2022-08-09T20:22:02.423Z,63.42
2022-08-09T20:27:11.594Z,63.51
2022-08-09T20:32:30.066Z,62.91
2022-08-09T20:38:22.020Z,63.82
2022-08-09T20:43:18.429Z,62.82
2022-08-09T20:48:31.677Z,64.33
2022-08-09T20:53:38.949Z,64.28
2022-08-09T20:58:44.127Z,64.40
2022-08-09T21:04:08.356Z,65.74
2022-08-09T21:09:16.463Z,66.59
2022-08-09T21:14:40.325Z,70.76
2022-08-09T22:13:43.323Z,78.15
2022-08-09T22:18:54.035Z,76.66
2022-08-09T22:24:01.601Z,77.57
2022-08-09T22:29:10.036Z,77.98
2022-08-09T22:34:15.062Z,77.87
2022-08-09T22:39:47.284Z,78.85
2022-08-09T22:44:45.623Z,78.61
2022-08-09T22:49:51.911Z,79.10
2022-08-09T22:54:55.910Z,82.11
2022-08-09T23:00:00.869Z,84.66
2022-08-09T23:05:06.451Z,83.50
2022-08-09T23:10:10.578Z,83.57
2022-08-09T23:15:15.674Z,83.51
2022-08-09T23:20:19.230Z,85.86
2022-08-09T23:25:22.926Z,84.91
2022-08-09T23:30:27.878Z,87.55
2022-08-09T23:35:31.516Z,85.82
2022-08-09T23:40:56.454Z,88.84
2022-08-09T23:46:02.346Z,88.84
2022-08-09T23:51:06.684Z,88.59
2022-08-09T23:56:11.348Z,88.00
